Time;durP1;ratioP1;P1;durP2;ratioP2;P2;SDS_P1;SDS_P2;PMS_P1;PMS_P2;Temp;Humidity;BMP_temperature;BMP_pressure;BME280_temperature;BME280_humidity;BME280_pressure;Samples;Min_cycle;Max_cycle;Signal;HPM_P1;HPM_P2
2022/11/01 00:01:06;;;;;;;5.47;1.42;;;18.90;80.50;;;;;;5052853;28;20287;-78
2022/11/01 00:03:31;;;;;;;6.53;2.05;;;18.90;80.70;;;;;;5052611;28;20394;-78
2022/11/01 00:05:57;;;;;;;5.32;1.58;;;18.90;80.70;;;;;;5052507;28;20100;-78
2022/11/01 00:08:23;;;;;;;9.50;2.00;;;18.80;80.60;;;;;;5053652;28;20067;-78
2022/11/01 00:10:48;;;;;;;5.43;2.00;;;18.80;80.80;;;;;;5053726;28;20143;-78
2022/11/01 00:13:14;;;;;;;7.85;1.80;;;18.80;80.80;;;;;;5053511;28;20045;-78
2022/11/01 00:15:39;;;;;;;6.63;1.60;;;18.80;81.00;;;;;;5053484;28;20057;-78
2022/11/01 00:18:05;;;;;;;5.95;1.58;;;18.80;81.00;;;;;;5053448;28;20021;-78
2022/11/01 00:20:31;;;;;;;7.10;1.67;;;18.80;81.20;;;;;;5053434;28;20033;-78
2022/11/01 00:22:56;;;;;;;9.50;2.10;;;18.80;81.20;;;;;;5052278;28;20025;-78
2022/11/01 00:25:22;;;;;;;7.70;1.65;;;18.70;81.40;;;;;;5052364;28;20029;-78
2022/11/01 00:27:47;;;;;;;10.57;1.80;;;18.70;81.40;;;;;;5053067;28;20479;-78
2022/11/01 00:30:13;;;;;;;7.22;1.88;;;18.70;81.40;;;;;;5053309;28;20025;-78
2022/11/01 00:32:39;;;;;;;6.07;1.70;;;18.70;81.50;;;;;;5053091;28;20036;-78
2022/11/01 00:35:05;;;;;;;6.60;1.92;;;18.70;81.50;;;;;;5053334;28;20032;-78
2022/11/01 00:37:30;;;;;;;7.85;1.50;;;18.70;81.60;;;;;;5051908;28;20535;-78
2022/11/01 00:39:56;;;;;;;4.68;1.20;;;18.70;81.60;;;;;;5053245;28;20071;-78
2022/11/01 00:42:22;;;;;;;5.47;1.50;;;18.70;81.70;;;;;;5052463;28;20098;-78
2022/11/01 00:44:47;;;;;;;6.47;1.55;;;18.70;81.80;;;;;;5045727;28;20075;-78
2022/11/01 00:47:13;;;;;;;5.78;1.80;;;18.60;81.90;;;;;;5032008;28;20435;-79
2022/11/01 00:49:38;;;;;;;8.02;1.70;;;18.70;81.80;;;;;;5031834;28;20079;-78
2022/11/01 00:52:04;;;;;;;5.78;1.80;;;18.60;81.80;;;;;;5032962;28;20023;-78
2022/11/01 00:54:30;;;;;;;8.80;1.80;;;18.60;81.90;;;;;;5050455;28;20040;-78
2022/11/01 00:56:55;;;;;;;6.07;1.52;;;18.60;82.00;;;;;;5051219;28;20074;-78
2022/11/01 00:59:21;;;;;;;8.77;1.70;;;18.60;82.10;;;;;;5051465;28;20029;-78
2022/11/01 01:01:47;;;;;;;6.10;1.98;;;18.60;82.10;;;;;;5035016;28;20021;-78
2022/11/01 01:04:12;;;;;;;5.35;1.42;;;18.60;82.20;;;;;;5052683;28;20103;-78
2022/11/01 01:06:38;;;;;;;4.90;2.47;;;18.60;82.20;;;;;;5052694;28;20021;-78
2022/11/01 01:09:03;;;;;;;7.32;1.63;;;18.60;82.30;;;;;;5052694;28;20398;-78
2022/11/01 01:11:29;;;;;;;5.50;1.45;;;18.60;82.20;;;;;;5034550;28;20455;-78
2022/11/01 01:13:55;;;;;;;6.68;1.20;;;18.60;82.30;;;;;;5051426;28;20029;-78
2022/11/01 01:16:20;;;;;;;7.70;2.00;;;18.60;82.60;;;;;;5051427;28;20036;-78
2022/11/01 01:18:46;;;;;;;5.10;1.52;;;18.60;82.50;;;;;;5034476;28;20078;-78
2022/11/01 01:21:12;;;;;;;6.40;1.67;;;18.50;82.50;;;;;;5051355;28;20017;-78
2022/11/01 01:23:38;;;;;;;8.20;1.95;;;18.50;82.50;;;;;;5051146;28;20044;-78
2022/11/01 01:26:07;;;;;;;8.00;1.50;;;18.50;82.70;;;;;;5034431;28;20068;-78
2022/11/01 01:28:33;;;;;;;4.60;1.48;;;18.50;82.70;;;;;;5018184;28;20497;-78
2022/11/01 01:30:59;;;;;;;5.93;1.40;;;18.50;82.60;;;;;;5051282;28;20021;-78
2022/11/01 01:33:25;;;;;;;5.03;1.38;;;18.50;82.80;;;;;;5051126;28;20117;-78
2022/11/01 01:35:50;;;;;;;5.65;1.73;;;18.50;82.80;;;;;;5034559;28;20541;-78
2022/11/01 01:38:16;;;;;;;7.07;1.33;;;18.50;82.80;;;;;;5034254;28;20032;-77
2022/11/01 01:40:42;;;;;;;5.03;1.40;;;18.50;82.80;;;;;;5051855;28;20057;-77
2022/11/01 01:43:10;;;;;;;6.15;1.52;;;18.50;82.90;;;;;;5052270;28;20025;-78
2022/11/01 01:45:37;;;;;;;5.45;1.67;;;18.50;83.10;;;;;;5037029;28;20538;-78
2022/11/01 01:48:24;;;;;;;8.23;1.60;;;18.50;83.00;;;;;;5030947;28;20021;-78
2022/11/01 01:50:56;;;;;;;6.40;1.50;;;18.50;83.00;;;;;;5032092;28;20025;-78
2022/11/01 01:53:29;;;;;;;8.13;1.98;;;18.50;83.00;;;;;;5040438;28;20491;-78
2022/11/01 01:56:10;;;;;;;5.40;1.65;;;18.50;83.10;;;;;;5037891;28;20087;-78
2022/11/01 01:58:38;;;;;;;6.43;1.80;;;18.50;83.20;;;;;;5055961;28;20056;-78
2022/11/01 02:01:04;;;;;;;5.95;1.20;;;18.50;83.20;;;;;;5056195;28;20017;-78
2022/11/01 02:03:31;;;;;;;4.65;1.30;;;18.50;83.10;;;;;;5054828;28;20029;-78
2022/11/01 02:05:58;;;;;;;6.65;1.70;;;18.50;83.10;;;;;;5038484;28;20028;-78
2022/11/01 02:08:27;;;;;;;7.82;1.70;;;18.50;83.20;;;;;;5054416;28;20356;-77
2022/11/01 02:10:59;;;;;;;6.75;1.80;;;18.40;83.20;;;;;;5038589;28;20552;-78
2022/11/01 02:13:25;;;;;;;;;;;18.50;83.20;;;;;;5039519;28;20021;-78
2022/11/01 02:16:08;;;;;;;3.60;1.40;;;18.50;83.10;;;;;;5056004;28;19905;-78
2022/11/01 02:18:54;;;;;;;6.95;1.60;;;18.50;83.40;;;;;;5055700;28;20067;-78
2022/11/01 02:21:29;;;;;;;5.38;1.15;;;18.50;83.40;;;;;;5054591;28;20110;-78
2022/11/01 02:24:23;;;;;;;6.72;1.50;;;18.40;83.30;;;;;;5052329;28;20032;-78
2022/11/01 02:27:00;;;;;;;3.38;1.13;;;18.40;83.50;;;;;;5033738;28;20071;-79
2022/11/01 02:29:50;;;;;;;6.55;1.45;;;18.40;83.40;;;;;;5052235;28;20306;-79
2022/11/01 02:32:27;;;;;;;4.07;1.42;;;18.40;83.50;;;;;;5053864;28;20029;-78
2022/11/01 02:35:04;;;;;;;8.52;1.65;;;18.40;83.60;;;;;;5020888;28;20013;-79
2022/11/01 02:37:38;;;;;;;3.72;1.30;;;18.40;83.60;;;;;;5032550;28;20495;-79
2022/11/01 02:40:10;;;;;;;5.53;1.63;;;18.40;83.60;;;;;;5042865;28;20098;-79
2022/11/01 02:42:47;;;;;;;6.20;1.60;;;18.40;83.60;;;;;;5034696;28;20475;-78
2022/11/01 02:45:28;;;;;;;5.47;1.38;;;18.40;83.70;;;;;;5033929;28;20604;-79
2022/11/01 02:47:58;;;;;;;7.25;1.58;;;18.40;83.80;;;;;;5037553;28;20025;-79
2022/11/01 02:50:38;;;;;;;8.75;1.45;;;18.40;83.80;;;;;;5052572;28;20021;-78
2022/11/01 02:53:03;;;;;;;3.50;1.27;;;18.40;84.00;;;;;;5030281;28;20017;-78
2022/11/01 02:55:29;;;;;;;4.80;1.42;;;18.40;83.90;;;;;;5017200;28;20192;-78
2022/11/01 02:58:03;;;;;;;6.65;1.50;;;18.40;83.90;;;;;;5033869;28;20037;-79
2022/11/01 03:00:30;;;;;;;6.18;1.60;;;18.40;83.90;;;;;;5034181;28;20057;-79
2022/11/01 03:03:09;;;;;;;5.90;1.23;;;18.40;84.00;;;;;;5034939;28;20480;-79
2022/11/01 03:05:38;;;;;;;5.20;1.38;;;18.40;84.00;;;;;;5033634;28;20108;-78
2022/11/01 03:08:06;;;;;;;5.15;1.50;;;18.40;84.10;;;;;;5034598;28;20029;-78
2022/11/01 03:10:49;;;;;;;6.28;1.55;;;18.40;84.10;;;;;;5033855;28;20030;-78
2022/11/01 03:13:27;;;;;;;10.10;1.92;;;18.40;84.10;;;;;;5033771;28;20032;-78
2022/11/01 03:16:07;;;;;;;7.13;1.30;;;18.40;84.10;;;;;;5033699;28;20064;-78
2022/11/01 03:18:34;;;;;;;5.38;1.88;;;18.40;84.10;;;;;;5033739;28;20030;-78
2022/11/01 03:21:14;;;;;;;6.28;1.33;;;18.30;84.10;;;;;;5033129;28;20067;-79
2022/11/01 03:23:53;;;;;;;5.47;1.48;;;18.30;84.20;;;;;;5033577;28;20033;-78
2022/11/01 03:26:23;;;;;;;5.22;1.38;;;18.30;84.10;;;;;;5033471;28;20044;-78
2022/11/01 03:28:50;;;;;;;5.68;2.08;;;18.30;84.10;;;;;;5033447;28;20538;-78
2022/11/01 03:31:30;;;;;;;12.68;1.85;;;18.30;84.20;;;;;;5033462;28;20025;-78
2022/11/01 03:34:05;;;;;;;4.20;1.25;;;18.30;84.10;;;;;;5033333;28;20044;-78
2022/11/01 03:36:37;;;;;;;4.75;1.52;;;18.30;84.20;;;;;;5033154;28;20022;-79
2022/11/01 03:39:08;;;;;;;4.55;1.63;;;18.40;84.30;;;;;;5032926;28;20056;-78
2022/11/01 03:41:42;;;;;;;4.65;1.35;;;18.30;84.20;;;;;;5033203;28;20472;-78
2022/11/01 03:44:08;;;;;;;4.35;1.27;;;18.30;84.30;;;;;;5033006;28;20049;-78
2022/11/01 03:46:34;;;;;;;5.50;1.33;;;18.30;84.30;;;;;;5033148;28;20010;-78
2022/11/01 03:48:59;;;;;;;6.15;1.50;;;18.30;84.30;;;;;;5032932;28;20029;-79
2022/11/01 03:51:25;;;;;;;7.10;1.90;;;18.30;84.40;;;;;;5032821;28;20013;-78
2022/11/01 03:53:50;;;;;;;3.70;1.20;;;18.30;84.40;;;;;;5046205;28;20532;-78
2022/11/01 03:56:16;;;;;;;6.15;1.20;;;18.30;84.40;;;;;;5053842;28;20166;-78
2022/11/01 03:58:45;;;;;;;4.43;1.45;;;18.30;84.40;;;;;;5053908;28;20047;-78
2022/11/01 04:01:12;;;;;;;8.93;1.60;;;18.20;84.40;;;;;;5053828;28;20017;-78
2022/11/01 04:03:37;;;;;;;3.20;1.20;;;18.30;84.40;;;;;;5052590;28;20025;-79
2022/11/01 04:06:04;;;;;;;3.65;1.20;;;18.20;84.40;;;;;;5052364;28;20071;-78
2022/11/01 04:08:29;;;;;;;5.28;1.33;;;18.30;84.50;;;;;;5019583;28;20079;-79
2022/11/01 04:10:55;;;;;;;4.82;1.73;;;18.20;84.40;;;;;;5052425;28;20434;-78
2022/11/01 04:13:21;;;;;;;5.35;1.10;;;18.20;84.50;;;;;;5036014;28;20053;-78
2022/11/01 04:21:16;;;;;;;5.35;1.30;;;18.20;84.50;;;;;;5053276;28;20071;-78
2022/11/01 04:23:42;;;;;;;5.88;1.67;;;18.20;84.60;;;;;;5035785;28;20017;-79
2022/11/01 04:26:10;;;;;;;6.72;1.25;;;18.20;84.50;;;;;;5035536;28;20027;-78
2022/11/01 04:28:36;;;;;;;2.80;1.02;;;18.20;84.50;;;;;;5052268;28;20024;-78
2022/11/01 04:31:03;;;;;;;4.90;1.23;;;18.20;84.60;;;;;;5051960;28;20399;-78
2022/11/01 04:33:28;;;;;;;4.57;1.20;;;18.20;84.60;;;;;;5051713;28;20017;-79
2022/11/01 04:35:54;;;;;;;6.07;1.70;;;18.20;84.60;;;;;;5052088;28;20040;-78
2022/11/01 04:38:20;;;;;;;4.05;1.75;;;18.20;84.60;;;;;;5053262;28;20036;-78
2022/11/01 04:40:46;;;;;;;5.45;1.65;;;18.20;84.60;;;;;;5053017;28;20032;-79
2022/11/01 04:43:12;;;;;;;6.40;1.20;;;18.20;84.60;;;;;;5052896;28;20395;-78
2022/11/01 04:45:38;;;;;;;9.10;1.70;;;18.20;84.60;;;;;;5037499;28;20416;-78
2022/11/01 04:48:17;;;;;;;6.43;1.33;;;18.20;84.60;;;;;;5034984;28;20028;-78
2022/11/01 04:50:44;;;;;;;4.93;1.35;;;18.20;84.60;;;;;;5051865;28;20025;-78
2022/11/01 04:53:10;;;;;;;3.40;1.40;;;18.20;84.60;;;;;;5045083;28;20153;-79
2022/11/01 04:55:35;;;;;;;7.07;1.20;;;18.20;84.70;;;;;;5031515;28;20053;-79
2022/11/01 04:58:02;;;;;;;4.70;1.15;;;18.20;84.60;;;;;;5031621;28;20056;-79
2022/11/01 05:00:27;;;;;;;5.35;1.10;;;18.20;84.70;;;;;;5031652;28;20476;-79
2022/11/01 05:03:00;;;;;;;7.75;1.60;;;18.20;84.70;;;;;;5031356;28;20018;-79
2022/11/01 05:05:25;;;;;;;4.35;1.27;;;18.20;84.70;;;;;;5031657;28;20096;-78
2022/11/01 05:08:04;;;;;;;7.63;1.45;;;18.20;84.80;;;;;;5032850;28;20079;-78
2022/11/01 05:10:30;;;;;;;5.70;1.45;;;18.20;84.80;;;;;;5031671;28;20045;-79
2022/11/01 05:12:56;;;;;;;5.03;1.30;;;18.20;84.90;;;;;;5032606;28;20028;-79
2022/11/01 05:15:21;;;;;;;8.77;1.42;;;18.10;84.80;;;;;;5031613;28;20104;-78
2022/11/01 05:17:47;;;;;;;3.53;1.52;;;18.20;84.90;;;;;;5031320;28;20442;-79
2022/11/01 05:20:13;;;;;;;8.88;1.30;;;18.10;84.80;;;;;;5014715;28;20029;-78
2022/11/01 05:22:38;;;;;;;8.35;2.08;;;18.10;84.90;;;;;;5015049;28;20377;-79
2022/11/01 05:25:04;;;;;;;5.10;1.67;;;18.10;84.90;;;;;;5031241;28;20448;-79
2022/11/01 05:27:30;;;;;;;5.13;1.35;;;18.10;84.80;;;;;;5014765;28;20026;-79
2022/11/01 05:29:56;;;;;;;10.10;1.42;;;18.10;84.80;;;;;;5013980;28;20030;-78
2022/11/01 05:32:21;;;;;;;9.43;1.30;;;18.10;84.80;;;;;;5032225;28;20064;-79
2022/11/01 05:34:48;;;;;;;10.38;1.75;;;18.10;84.80;;;;;;5031144;28;20029;-79
2022/11/01 05:37:14;;;;;;;4.72;1.40;;;18.10;84.90;;;;;;5014910;28;20506;-78
2022/11/01 05:39:40;;;;;;;7.55;2.05;;;18.10;84.90;;;;;;5032371;28;20075;-78
2022/11/01 05:42:06;;;;;;;7.60;1.70;;;18.10;84.90;;;;;;5031044;28;20022;-78
2022/11/01 05:44:31;;;;;;;5.93;1.42;;;18.10;85.00;;;;;;5031099;28;20029;-78
2022/11/01 05:46:57;;;;;;;6.25;1.35;;;18.10;84.90;;;;;;5030741;28;20024;-78
2022/11/01 05:49:23;;;;;;;6.95;1.80;;;18.10;84.90;;;;;;5032208;28;20545;-78
2022/11/01 05:51:49;;;;;;;2.97;1.17;;;18.10;84.90;;;;;;5032306;28;20026;-77
2022/11/01 05:54:15;;;;;;;5.95;1.55;;;18.10;85.00;;;;;;5046568;28;20092;-79
2022/11/01 05:56:40;;;;;;;9.88;1.58;;;18.10;85.10;;;;;;5041154;28;20534;-78
2022/11/01 05:59:06;;;;;;;11.55;1.65;;;18.10;84.80;;;;;;5045430;28;20483;-78
2022/11/01 06:01:31;;;;;;;6.78;1.10;;;18.10;84.90;;;;;;5049833;28;20017;-78
2022/11/01 06:04:00;;;;;;;7.63;1.73;;;18.10;84.80;;;;;;5045610;28;20021;-78
2022/11/01 06:06:30;;;;;;;3.85;1.25;;;18.10;84.90;;;;;;5045599;28;20404;-78
2022/11/01 06:08:56;;;;;;;8.80;1.90;;;18.10;85.00;;;;;;5043570;28;20064;-78
2022/11/01 06:11:22;;;;;;;3.58;1.30;;;18.10;85.00;;;;;;5043308;28;20028;-78
2022/11/01 06:13:53;;;;;;;5.43;1.40;;;18.10;85.00;;;;;;5042767;28;20013;-78
2022/11/01 06:16:18;;;;;;;7.95;1.60;;;18.10;85.00;;;;;;5038863;28;20499;-78
2022/11/01 06:18:44;;;;;;;5.88;1.23;;;18.10;85.00;;;;;;5047225;28;20052;-77
2022/11/01 06:21:09;;;;;;;5.57;1.40;;;18.10;85.00;;;;;;5047379;28;20175;-78
2022/11/01 06:23:35;;;;;;;12.50;1.85;;;18.10;85.00;;;;;;5045650;28;20141;-78
2022/11/01 06:26:01;;;;;;;3.08;1.23;;;18.10;85.10;;;;;;5040202;28;20021;-78
2022/11/01 06:28:27;;;;;;;10.43;1.40;;;18.10;85.10;;;;;;5043365;28;20373;-78
2022/11/01 06:30:52;;;;;;;6.28;1.42;;;18.10;85.10;;;;;;5046149;28;20031;-78
2022/11/01 06:33:18;;;;;;;5.57;1.80;;;18.10;85.10;;;;;;5039855;28;20032;-78
2022/11/01 06:35:44;;;;;;;7.07;1.45;;;18.10;85.10;;;;;;5046200;28;20031;-78
2022/11/01 06:38:09;;;;;;;6.53;1.98;;;18.10;85.10;;;;;;5037740;28;20033;-78
2022/11/01 06:40:35;;;;;;;7.50;1.42;;;18.10;85.20;;;;;;5044619;28;20120;-78
2022/11/01 06:43:02;;;;;;;7.57;2.15;;;18.10;85.20;;;;;;5035312;28;20092;-78
2022/11/01 06:45:31;;;;;;;8.15;1.35;;;18.10;85.20;;;;;;5047317;28;20021;-78
2022/11/01 06:47:57;;;;;;;4.18;1.35;;;18.10;85.20;;;;;;5033413;28;20025;-78
2022/11/01 06:50:22;;;;;;;9.50;1.75;;;18.10;85.20;;;;;;5041295;28;20064;-78
2022/11/01 06:52:48;;;;;;;6.88;1.25;;;18.10;85.30;;;;;;5046700;28;20037;-78
2022/11/01 06:55:14;;;;;;;7.07;1.88;;;18.10;85.30;;;;;;5033648;28;20045;-78
2022/11/01 06:57:39;;;;;;;8.25;1.60;;;18.10;85.30;;;;;;5048600;28;20033;-78
2022/11/01 07:00:07;;;;;;;8.48;1.40;;;18.10;85.30;;;;;;5031551;28;20021;-78
2022/11/01 07:02:32;;;;;;;7.90;1.77;;;18.10;85.30;;;;;;5045779;28;20032;-78
2022/11/01 07:04:58;;;;;;;7.03;1.70;;;18.10;85.30;;;;;;5045337;28;20013;-77
2022/11/01 07:07:23;;;;;;;4.32;1.40;;;18.10;85.30;;;;;;5050788;28;20021;-77
2022/11/01 07:09:49;;;;;;;9.55;1.45;;;18.10;85.30;;;;;;5033396;28;20411;-78
2022/11/01 07:12:15;;;;;;;4.90;1.00;;;18.10;85.40;;;;;;5044949;28;20029;-78
2022/11/01 07:14:40;;;;;;;5.95;1.40;;;18.00;86.30;;;;;;5046993;28;20446;-78
2022/11/01 07:17:06;;;;;;;6.22;1.02;;;18.10;85.40;;;;;;5050325;28;20488;-78
2022/11/01 07:19:32;;;;;;;7.70;1.50;;;18.10;85.40;;;;;;5046166;28;20021;-78
2022/11/01 07:21:57;;;;;;;6.55;1.77;;;18.10;85.40;;;;;;5041086;28;20031;-78
2022/11/01 07:24:23;;;;;;;7.93;1.48;;;18.10;85.40;;;;;;5042022;28;20028;-78
2022/11/01 07:26:48;;;;;;;6.07;1.17;;;18.10;85.40;;;;;;5040988;28;20487;-78
2022/11/01 07:29:14;;;;;;;5.32;1.20;;;18.00;85.30;;;;;;5044735;28;20025;-78
2022/11/01 07:31:40;;;;;;;4.07;1.15;;;18.10;85.50;;;;;;5047304;28;20035;-78
2022/11/01 07:34:06;;;;;;;8.57;1.70;;;18.00;85.40;;;;;;5028218;28;20021;-78
2022/11/01 07:36:32;;;;;;;7.70;1.70;;;18.10;85.50;;;;;;5048983;28;20079;-78
2022/11/01 07:38:57;;;;;;;6.47;1.30;;;18.10;85.50;;;;;;5049405;28;20025;-78
2022/11/01 07:41:23;;;;;;;5.82;1.30;;;18.10;85.40;;;;;;5048702;28;20013;-78
2022/11/01 07:43:48;;;;;;;7.85;1.42;;;18.10;85.50;;;;;;5047873;28;20023;-78
2022/11/01 07:46:14;;;;;;;5.47;1.02;;;18.00;85.40;;;;;;5044505;28;20031;-78
2022/11/01 07:48:40;;;;;;;5.78;1.27;;;18.00;85.50;;;;;;5047456;28;20055;-78
2022/11/01 07:51:06;;;;;;;8.48;1.67;;;18.10;85.50;;;;;;5047363;28;20501;-78
2022/11/01 07:53:32;;;;;;;5.65;1.13;;;18.00;85.50;;;;;;5044899;28;20071;-78
2022/11/01 07:55:59;;;;;;;5.55;1.20;;;18.10;85.50;;;;;;5050452;28;20523;-78
2022/11/01 07:58:24;;;;;;;4.20;1.15;;;18.00;85.50;;;;;;5043588;28;20033;-78
2022/11/01 08:00:50;;;;;;;3.95;1.00;;;18.10;85.50;;;;;;5040997;28;20499;-78
2022/11/01 08:03:16;;;;;;;5.45;1.27;;;18.10;85.50;;;;;;5046209;28;20597;-78
2022/11/01 08:05:42;;;;;;;5.13;1.63;;;18.00;85.50;;;;;;5046108;28;20059;-77
2022/11/01 08:08:08;;;;;;;7.45;1.40;;;18.00;85.50;;;;;;5029554;28;20393;-77
2022/11/01 08:10:34;;;;;;;4.75;1.35;;;18.00;85.60;;;;;;5046296;28;20395;-77
2022/11/01 08:13:21;;;;;;;9.43;1.35;;;18.00;85.50;;;;;;5046115;28;20048;-77
2022/11/01 08:15:47;;;;;;;6.07;1.30;;;18.10;85.70;;;;;;5048254;28;20017;-78
2022/11/01 08:18:13;;;;;;;7.05;1.35;;;18.00;85.60;;;;;;5023604;28;20018;-78
2022/11/01 08:20:40;;;;;;;7.68;1.35;;;18.00;85.50;;;;;;5037476;28;20056;-78
2022/11/01 08:23:05;;;;;;;7.70;1.55;;;18.00;85.50;;;;;;5040567;28;20040;-78
2022/11/01 08:25:31;;;;;;;8.50;1.35;;;18.00;85.60;;;;;;5043506;28;20495;-78
2022/11/01 08:28:01;;;;;;;8.57;1.92;;;18.00;85.60;;;;;;5045393;28;20104;-78
2022/11/01 08:30:27;;;;;;;7.35;1.63;;;18.00;86.60;;;;;;5047159;28;20039;-77
2022/11/01 08:32:59;;;;;;;8.43;1.52;;;18.00;86.60;;;;;;5046481;28;20500;-78
2022/11/01 08:35:25;;;;;;;11.45;2.33;;;18.00;85.60;;;;;;5046017;28;20028;-78
2022/11/01 08:37:51;;;;;;;8.15;1.30;;;18.00;85.70;;;;;;5025290;28;20032;-78
2022/11/01 08:40:17;;;;;;;9.88;1.38;;;18.00;85.90;;;;;;5045344;28;20021;-78
2022/11/01 08:42:42;;;;;;;6.55;1.75;;;18.00;85.60;;;;;;5023183;28;20381;-78
2022/11/01 08:45:09;;;;;;;7.88;1.33;;;18.00;85.60;;;;;;5046676;28;20108;-78
2022/11/01 08:47:34;;;;;;;6.43;1.27;;;18.00;85.60;;;;;;5040855;28;20039;-78
2022/11/01 08:50:00;;;;;;;8.75;1.40;;;18.00;85.70;;;;;;5049310;28;20395;-78
2022/11/01 08:52:26;;;;;;;7.10;1.90;;;18.00;85.70;;;;;;5046186;28;20445;-78
2022/11/01 08:54:52;;;;;;;8.90;1.63;;;18.00;85.60;;;;;;5042587;28;20043;-77
2022/11/01 08:57:18;;;;;;;5.45;1.30;;;18.00;85.60;;;;;;5044764;28;20025;-78
2022/11/01 08:59:43;;;;;;;6.65;1.40;;;18.00;85.70;;;;;;5044395;28;20387;-78
2022/11/01 09:02:10;;;;;;;4.22;1.30;;;18.00;85.70;;;;;;5043189;28;20024;-78
2022/11/01 09:04:35;;;;;;;10.63;1.55;;;18.00;85.70;;;;;;5046326;28;20025;-78
2022/11/01 09:07:01;;;;;;;5.82;1.10;;;18.00;85.70;;;;;;5035851;28;20550;-78
2022/11/01 09:09:28;;;;;;;8.88;2.13;;;18.00;85.70;;;;;;5040764;28;20096;-78
2022/11/01 09:11:53;;;;;;;7.47;1.95;;;18.00;85.70;;;;;;5045332;28;20111;-77
2022/11/01 09:14:22;;;;;;;6.25;1.80;;;18.00;85.70;;;;;;5047062;28;20107;-78
2022/11/01 09:16:48;;;;;;;5.55;1.40;;;18.00;85.80;;;;;;5026982;28;20377;-78
2022/11/01 09:19:14;;;;;;;6.50;1.38;;;18.00;85.80;;;;;;5040775;28;20496;-78
2022/11/01 09:21:42;;;;;;;7.68;1.15;;;18.00;85.80;;;;;;5049006;28;20032;-78
2022/11/01 09:24:10;;;;;;;5.53;1.30;;;18.00;85.80;;;;;;5030552;28;20021;-78
2022/11/01 09:26:35;;;;;;;4.25;1.25;;;18.00;85.70;;;;;;5028885;28;20032;-77
2022/11/01 09:29:01;;;;;;;9.23;1.70;;;18.00;85.80;;;;;;5041414;28;20017;-78
2022/11/01 09:31:27;;;;;;;7.55;1.40;;;18.00;85.80;;;;;;5042011;28;20105;-77
2022/11/01 09:33:56;;;;;;;5.82;1.58;;;18.00;85.80;;;;;;5044858;28;20017;-77
2022/11/01 09:36:22;;;;;;;8.95;1.55;;;18.00;85.90;;;;;;5030508;28;20028;-77
2022/11/01 09:38:48;;;;;;;6.50;1.67;;;18.00;85.90;;;;;;5040514;28;20060;-78
2022/11/01 09:41:32;;;;;;;11.88;1.70;;;18.00;86.00;;;;;;5022017;28;20053;-78
2022/11/01 09:43:58;;;;;;;5.68;1.42;;;18.00;85.90;;;;;;5029068;28;20021;-77
2022/11/01 09:46:27;;;;;;;4.53;1.30;;;18.00;85.90;;;;;;5019651;28;20034;-77
2022/11/01 09:48:54;;;;;;;5.70;1.40;;;18.00;85.90;;;;;;5043882;28;20089;-78
2022/11/01 09:51:21;;;;;;;6.28;1.30;;;18.00;86.00;;;;;;5028971;28;20067;-78
2022/11/01 09:53:48;;;;;;;3.83;0.95;;;18.00;85.90;;;;;;5043126;28;20017;-78
2022/11/01 09:56:27;;;;;;;7.72;1.20;;;18.00;86.00;;;;;;5026337;28;20045;-78
2022/11/01 09:59:30;;;;;;;7.35;1.50;;;18.00;86.00;;;;;;5046764;28;20095;-78
2022/11/01 10:02:53;;;;;;;4.85;1.85;;;18.00;86.00;;;;;;5044716;28;20028;-77
2022/11/01 10:05:38;;;;;;;6.90;1.50;;;18.00;86.00;;;;;;5039814;28;20025;-78
2022/11/01 10:08:37;;;;;;;4.68;1.20;;;18.00;86.10;;;;;;5031125;28;20481;-78
2022/11/01 10:11:03;;;;;;;6.28;1.50;;;18.00;86.00;;;;;;5045507;28;20033;-78
2022/11/01 10:13:37;;;;;;;4.80;1.50;;;18.00;86.00;;;;;;5024638;28;20040;-78
2022/11/01 10:16:26;;;;;;;5.65;1.20;;;18.00;86.00;;;;;;5048567;28;20064;-79
2022/11/01 10:19:09;;;;;;;9.38;1.85;;;18.00;86.00;;;;;;5031162;28;20116;-78
2022/11/01 10:21:44;;;;;;;8.15;1.38;;;17.90;83.50;;;;;;5030947;28;20025;-77
2022/11/01 10:24:27;;;;;;;10.60;1.83;;;17.90;82.70;;;;;;5032914;28;20033;-77
2022/11/01 10:27:15;;;;;;;8.45;1.40;;;17.90;82.70;;;;;;5029515;28;20026;-79
2022/11/01 10:30:03;;;;;;;8.70;1.30;;;17.80;82.70;;;;;;5044741;28;20135;-78
2022/11/01 10:33:00;;;;;;;8.23;1.35;;;17.80;82.70;;;;;;5031967;28;20558;-79
2022/11/01 10:35:31;;;;;;;7.93;1.45;;;17.80;82.80;;;;;;5046354;28;20115;-78
2022/11/01 10:37:59;;;;;;;8.88;1.58;;;17.70;82.80;;;;;;5043864;28;20096;-78
2022/11/01 10:40:55;;;;;;;5.47;1.40;;;17.70;82.70;;;;;;5051571;28;20021;-77
2022/11/01 10:43:21;;;;;;;7.72;1.75;;;17.70;82.70;;;;;;5046010;28;20083;-75
2022/11/01 10:45:48;;;;;;;8.25;1.75;;;17.80;82.80;;;;;;5037455;28;20077;-77
2022/11/01 10:48:25;;;;;;;6.70;1.38;;;17.80;82.70;;;;;;5034185;28;20026;-76
2022/11/01 10:50:52;;;;;;;6.97;1.48;;;17.90;82.40;;;;;;5030856;28;20056;-75
2022/11/01 10:53:17;;;;;;;10.88;2.10;;;18.00;81.90;;;;;;5028511;28;20021;-79
2022/11/01 10:55:45;;;;;;;8.27;1.48;;;17.90;82.10;;;;;;5012185;28;20057;-79
2022/11/01 10:58:26;;;;;;;13.25;2.42;;;18.00;81.80;;;;;;5043123;28;20032;-79
2022/11/01 11:00:52;;;;;;;14.70;1.92;;;18.10;81.20;;;;;;5043889;28;20021;-79
2022/11/01 11:03:19;;;;;;;9.18;2.08;;;18.20;80.70;;;;;;5036876;28;20495;-79
2022/11/01 11:05:46;;;;;;;6.93;1.35;;;18.20;80.60;;;;;;5041063;28;20025;-78
2022/11/01 11:08:14;;;;;;;9.27;1.55;;;18.20;80.40;;;;;;5031687;28;20026;-78
2022/11/01 11:10:39;;;;;;;5.45;1.45;;;18.30;80.30;;;;;;5041659;28;20033;-78
2022/11/01 11:13:05;;;;;;;5.55;1.30;;;18.30;80.10;;;;;;5023392;28;20021;-78
2022/11/01 11:15:42;;;;;;;8.50;1.50;;;18.30;79.90;;;;;;5039325;28;20404;-78
2022/11/01 11:18:22;;;;;;;8.10;1.70;;;18.40;79.90;;;;;;5047725;28;20021;-78
2022/11/01 11:20:52;;;;;;;5.47;1.65;;;18.40;79.70;;;;;;5027214;28;20017;-78
2022/11/01 11:23:19;;;;;;;7.95;1.80;;;18.50;79.70;;;;;;5023106;28;20014;-78
2022/11/01 11:25:44;;;;;;;7.57;1.63;;;18.50;79.40;;;;;;5041175;28;20025;-79
2022/11/01 11:28:25;;;;;;;9.27;1.83;;;18.50;79.30;;;;;;5041417;28;20029;-78
2022/11/01 11:30:51;;;;;;;9.25;2.03;;;18.60;79.40;;;;;;5026418;28;20035;-78
2022/11/01 11:33:17;;;;;;;7.63;1.77;;;18.60;79.10;;;;;;5040166;28;20104;-78
2022/11/01 11:35:56;;;;;;;10.35;1.80;;;18.60;79.10;;;;;;5041102;28;20024;-78
2022/11/01 11:38:47;;;;;;;9.82;1.90;;;18.60;79.00;;;;;;5041354;28;20087;-78
2022/11/01 11:41:31;;;;;;;9.68;1.77;;;18.70;79.00;;;;;;5035474;28;20029;-78
2022/11/01 11:43:57;;;;;;;10.65;2.10;;;18.70;78.80;;;;;;5040455;28;20024;-77
2022/11/01 11:46:23;;;;;;;8.05;1.55;;;18.70;78.60;;;;;;5039058;28;20483;-78
2022/11/01 11:48:56;;;;;;;9.50;2.13;;;18.70;78.50;;;;;;5046910;28;20043;-78
2022/11/01 11:51:22;;;;;;;9.77;1.92;;;18.70;78.50;;;;;;5046411;28;20021;-76
2022/11/01 11:54:20;;;;;;;8.52;1.75;;;18.70;78.50;;;;;;5033472;28;20045;-74
2022/11/01 11:56:46;;;;;;;14.50;2.38;;;18.70;78.50;;;;;;5045697;28;20179;-74
2022/11/01 11:59:28;;;;;;;11.73;1.88;;;18.70;78.30;;;;;;5031342;28;20048;-74
2022/11/01 12:01:58;;;;;;;10.90;1.70;;;18.70;78.50;;;;;;5031326;28;20467;-74
2022/11/01 12:04:46;;;;;;;11.43;2.50;;;18.70;78.30;;;;;;5042491;28;20017;-74
2022/11/01 12:07:44;;;;;;;9.20;1.73;;;18.80;78.30;;;;;;5043582;28;20090;-75
2022/11/01 12:10:33;;;;;;;8.80;2.15;;;18.80;78.30;;;;;;5043479;28;20032;-75
2022/11/01 12:13:03;;;;;;;11.07;2.13;;;18.80;78.30;;;;;;5048874;28;20106;-75
2022/11/01 12:15:32;;;;;;;10.55;1.80;;;18.80;78.30;;;;;;5031611;28;20051;-78
2022/11/01 12:18:15;;;;;;;10.18;2.05;;;18.80;78.20;;;;;;5028902;28;20017;-78
2022/11/01 12:20:41;;;;;;;13.30;2.65;;;18.80;78.00;;;;;;5044168;28;20017;-77
2022/11/01 12:23:29;;;;;;;10.13;1.42;;;18.80;77.90;;;;;;5043011;28;20067;-77
2022/11/01 12:25:57;;;;;;;9.00;2.10;;;18.80;77.90;;;;;;5044213;28;20009;-78
2022/11/01 12:28:30;;;;;;;11.43;2.40;;;18.90;78.00;;;;;;5027162;28;20021;-79
2022/11/01 12:30:59;;;;;;;13.80;2.33;;;18.90;77.80;;;;;;5043751;28;20521;-79
2022/11/01 12:33:29;;;;;;;10.98;1.85;;;18.90;77.90;;;;;;5049039;28;20025;-78
2022/11/01 12:35:54;;;;;;;12.77;2.28;;;18.90;77.90;;;;;;5037764;28;20036;-79
2022/11/01 12:38:34;;;;;;;9.98;2.03;;;18.90;78.00;;;;;;5026324;28;20083;-79
2022/11/01 12:41:17;;;;;;;10.10;2.10;;;18.90;77.80;;;;;;5041519;28;20021;-79
2022/11/01 12:43:52;;;;;;;13.23;1.98;;;18.90;77.90;;;;;;5041889;28;20032;-78
2022/11/01 12:46:41;;;;;;;10.77;2.20;;;18.90;77.90;;;;;;5036768;28;20030;-79
2022/11/01 12:49:33;;;;;;;10.10;1.92;;;18.90;77.80;;;;;;5040590;28;20036;-78
2022/11/01 12:52:23;;;;;;;7.43;1.98;;;18.90;77.60;;;;;;5017393;28;20021;-79
2022/11/01 12:55:03;;;;;;;9.07;2.15;;;18.90;77.60;;;;;;5011756;28;20045;-78
2022/11/01 12:57:28;;;;;;;6.97;1.48;;;18.90;77.50;;;;;;5039526;28;20017;-79
2022/11/01 12:59:54;;;;;;;11.40;1.92;;;18.90;77.40;;;;;;5020327;28;20482;-79
2022/11/01 13:02:37;;;;;;;9.25;2.30;;;19.00;77.40;;;;;;5026446;28;20028;-78
2022/11/01 13:05:14;;;;;;;;;;;19.00;77.30;;;;;;5035919;28;20079;-80